Aérodrome :
LOGIN :

S'inscrire | Disclaimer

   EN    FR    IT 

 










Légende :    VFR   VFR Marginal   IFR   IFR Intensif   IFR Très Intensif
Visi : 
Plafond : 
>= 8 km
>= 3000ft
5 à 8 km
1000 à 3000 ft
1500m à 5 km
500 à 1000 ft
800 à 1500m
200 à 500 ft
< 800m
< 200 ft
Symboles :   Orages  Brouillard  Fortes neiges  Fortes précipitations  Vent > 20 kt
SIGMETs :   Divers  Orages  Givrage  Turbulence  Onde Orograph.  Cendres Volcan.







- Altitude de l'aérodrome : 194 ft


EBCV - Chièvres

DERNIER METAR :
  • 221055Z AUTO 18013KT 1800 -SN OVC009/// M01/M02 Q1005 YLO

METARs EXPIRÉS :
  • 221037Z AUTO 18014KT 1300 -SN OVC009/// M01/M02 Q1006 AMB
  • 221014Z AUTO 18014KT 1400 -SN OVC011/// M01/M02 Q1006 AMB
  • 220955Z AUTO 18014KT 2000 -SN OVC009/// M02/M02 Q1006 YLO
  • 220953Z AUTO 18013KT 1700 -SN OVC009/// M02/M02 Q1006 YLO
  • 220938Z AUTO 18013KT 1300 -SN OVC009/// M02/M02 Q1006 AMB
  • 220914Z AUTO 18014KT 0750 SN OVC011/// M02/M03 Q1007 RED
  • 220855Z AUTO 18014KT 1400 -SN OVC014/// M02/M03 Q1007 AMB
  • 220844Z AUTO 18016KT 3500 -SN OVC014/// M02/M04 Q1007 YLO
  • 220825Z AUTO 18016KT 7000 BKN015/// OVC053/// M02/M04 Q1007 WHT

TAF TAF EBCV
Valide du 22 à 10h jusqu'au 22 à 19h UTC


220841Z 2210/2219 18010KT 3700 -SN BKN010
TEMPO 2210/2214 19010G20KT 2000 SN BKN005 BKN010
PROB40
TEMPO 2208/2214 19012G25KT 1000 SN BKN005
BECMG 2213/2215 6000 BKN012 BY EBWM
Pas de NOTAMs connus pour ce terrain.



MET'MAP, la Météo Aéronautique d'un coup d'oeil ! - Copyright ORBIFLY Décembre 2007 - Disclaimer

ORBIFLY MET'MAP TEAM :

Programmation & Développement : Alexandra Zaïnal
Conception & Développement : Baudouin d'Aumeries
Co-Programmation & Développement : Marc-Olivier Méhu
Soutien technique & logistique : Manuel Goepfert

Contact : metmap@orbifly.com




SOURCES & CREDITS :

   NOAA